createdAt,value
2018-05-01T00:00:41.961Z,84.35
2018-05-01T00:03:10.046Z,84.72
2018-05-01T00:05:38.169Z,85.62
2018-05-01T00:08:06.289Z,85.02
2018-05-01T00:10:34.405Z,85.55
2018-05-01T00:13:02.517Z,85.10
2018-05-01T00:15:30.651Z,85.29
2018-05-01T00:17:58.731Z,85.43
2018-05-01T00:20:26.845Z,84.93
2018-05-01T00:22:54.946Z,84.62
2018-05-01T00:25:23.054Z,84.70
2018-05-01T00:27:51.161Z,84.56
2018-05-01T00:30:19.476Z,84.25
2018-05-01T00:32:47.572Z,84.31
2018-05-01T00:35:15.700Z,84.36
2018-05-01T00:37:43.791Z,85.14
2018-05-01T00:40:11.882Z,84.46
2018-05-01T00:42:40.006Z,85.05
2018-05-01T00:45:08.382Z,84.71
2018-05-01T00:47:36.744Z,85.18
2018-05-01T00:50:04.879Z,84.58
2018-05-01T00:52:44.869Z,84.43
2018-05-01T00:55:12.977Z,84.38
2018-05-01T00:57:41.077Z,84.49
2018-05-01T01:00:09.201Z,85.93
2018-05-01T01:02:37.300Z,85.18
2018-05-01T01:05:05.394Z,84.83
2018-05-01T01:07:33.508Z,84.68
2018-05-01T01:10:01.613Z,84.76
2018-05-01T01:12:29.721Z,84.23
2018-05-01T01:14:57.837Z,85.64
2018-05-01T01:17:25.939Z,84.25
2018-05-01T01:19:54.049Z,84.49
2018-05-01T01:22:22.182Z,84.77
2018-05-01T01:24:50.293Z,85.12
2018-05-01T01:27:18.412Z,84.68
2018-05-01T01:29:46.528Z,85.55
2018-05-01T01:32:14.640Z,85.88
2018-05-01T01:34:42.770Z,86.07
2018-05-01T01:37:10.367Z,86.01
2018-05-01T01:39:37.955Z,86.11
2018-05-01T01:42:05.502Z,85.54
2018-05-01T01:44:33.173Z,85.99
2018-05-01T01:47:00.662Z,87.00
2018-05-01T01:49:28.255Z,86.76
2018-05-01T01:51:56.322Z,86.88
2018-05-01T01:54:23.890Z,86.58
2018-05-01T01:56:51.471Z,85.27
2018-05-01T01:59:19.139Z,85.81
2018-05-01T02:01:46.869Z,85.53
2018-05-01T02:04:14.436Z,86.51
2018-05-01T02:06:42.033Z,86.13
2018-05-01T02:09:09.609Z,86.14
2018-05-01T02:11:37.187Z,86.70
2018-05-01T02:14:05.003Z,86.17
2018-05-01T02:16:32.584Z,85.85
2018-05-01T02:19:00.149Z,85.45
2018-05-01T02:21:27.733Z,86.22
2018-05-01T02:23:55.305Z,85.40
2018-05-01T02:26:22.874Z,85.12
2018-05-01T02:28:50.489Z,85.30
2018-05-01T02:31:18.049Z,85.55
2018-05-01T02:33:45.629Z,84.44
2018-05-01T02:36:13.205Z,84.33
2018-05-01T02:38:40.788Z,85.25
2018-05-01T02:41:08.384Z,86.57
2018-05-01T02:43:35.966Z,85.17
2018-05-01T02:46:03.539Z,86.50
2018-05-01T02:48:31.109Z,85.65
2018-05-01T02:50:58.693Z,85.05
2018-05-01T02:53:26.247Z,84.36
2018-05-01T02:55:53.802Z,85.30
2018-05-01T02:58:21.394Z,84.62
2018-05-01T03:00:48.967Z,85.08
2018-05-01T03:03:16.515Z,85.24
2018-05-01T03:05:44.081Z,85.32
2018-05-01T03:08:11.661Z,85.64
2018-05-01T03:10:39.237Z,85.00
2018-05-01T03:13:06.829Z,84.75
2018-05-01T03:15:34.393Z,84.87
2018-05-01T03:18:01.972Z,83.66
2018-05-01T03:20:29.534Z,83.55
2018-05-01T03:22:57.131Z,83.17
2018-05-01T03:25:24.751Z,83.19
2018-05-01T03:27:52.287Z,84.04
2018-05-01T03:30:19.862Z,83.72
2018-05-01T03:32:47.452Z,83.63
2018-05-01T03:35:15.018Z,84.08
2018-05-01T03:37:42.595Z,84.10
2018-05-01T03:40:10.147Z,84.26
2018-05-01T03:42:37.737Z,84.15
2018-05-01T03:45:05.295Z,84.68
2018-05-01T03:47:32.851Z,84.72
2018-05-01T03:50:00.440Z,84.00
2018-05-01T03:52:28.002Z,83.96
2018-05-01T03:54:55.582Z,84.35
2018-05-01T03:57:23.160Z,84.37
2018-05-01T03:59:50.753Z,84.58
2018-05-01T04:02:18.754Z,84.41
2018-05-01T04:04:46.291Z,84.24
2018-05-01T04:07:13.865Z,85.16
2018-05-01T04:09:41.426Z,84.05
2018-05-01T04:12:09.191Z,85.17
2018-05-01T04:14:36.743Z,84.78
2018-05-01T04:17:04.321Z,85.23
2018-05-01T04:19:31.906Z,84.96
2018-05-01T04:21:59.473Z,84.77
2018-05-01T04:24:27.027Z,84.70
2018-05-01T04:26:54.630Z,84.46
2018-05-01T04:29:22.214Z,84.66
2018-05-01T04:31:49.833Z,84.72
2018-05-01T04:34:17.442Z,84.64
2018-05-01T04:36:47.011Z,83.83
2018-05-01T04:39:14.605Z,83.74
2018-05-01T04:41:42.207Z,83.05
2018-05-01T04:44:09.790Z,82.69
2018-05-01T04:46:37.395Z,82.42
2018-05-01T04:49:04.983Z,81.80
2018-05-01T04:51:32.617Z,81.97
2018-05-01T04:54:00.207Z,82.02
2018-05-01T04:56:27.858Z,81.95
2018-05-01T04:58:55.464Z,82.18
2018-05-01T05:01:23.085Z,80.26
2018-05-01T05:03:50.650Z,80.55
2018-05-01T05:06:18.273Z,79.69
2018-05-01T05:08:46.028Z,79.92
2018-05-01T05:11:13.640Z,80.68
2018-05-01T05:13:41.232Z,80.84
2018-05-01T05:16:08.853Z,80.55
2018-05-01T05:18:36.465Z,80.35
2018-05-01T05:21:04.092Z,81.28
2018-05-01T05:23:31.669Z,80.15
2018-05-01T05:25:59.306Z,79.94
2018-05-01T05:28:26.884Z,80.07
2018-05-01T05:30:54.494Z,80.39
2018-05-01T05:33:22.064Z,79.86
2018-05-01T05:35:49.689Z,79.12
2018-05-01T05:38:17.261Z,79.18
2018-05-01T05:40:46.709Z,78.86
2018-05-01T05:43:14.285Z,79.37
2018-05-01T05:45:41.868Z,79.01
2018-05-01T05:48:09.504Z,77.87
2018-05-01T05:50:37.113Z,76.71
2018-05-01T05:53:04.694Z,76.93
2018-05-01T05:55:32.309Z,77.32
2018-05-01T05:57:59.887Z,77.04
2018-05-01T06:00:27.453Z,78.24
2018-05-01T06:02:55.077Z,78.69
2018-05-01T06:05:22.642Z,78.69
2018-05-01T06:07:50.370Z,77.93
2018-05-01T06:10:17.864Z,78.45
2018-05-01T06:12:45.467Z,77.00
2018-05-01T06:15:13.064Z,77.35
2018-05-01T06:17:40.641Z,77.40
2018-05-01T06:20:08.226Z,78.68
2018-05-01T06:22:36.667Z,78.34
2018-05-01T06:25:04.242Z,78.03
2018-05-01T06:27:31.840Z,78.18
2018-05-01T06:29:59.470Z,77.86
2018-05-01T06:32:27.040Z,76.36
2018-05-01T06:34:54.636Z,77.18
2018-05-01T06:37:22.219Z,77.29
2018-05-01T06:39:49.801Z,75.90
2018-05-01T06:42:17.363Z,76.04
2018-05-01T06:44:44.937Z,76.02
2018-05-01T06:47:12.535Z,75.17
2018-05-01T06:49:41.149Z,75.14
2018-05-01T06:52:08.768Z,75.62
2018-05-01T06:54:36.350Z,74.92
2018-05-01T06:57:03.956Z,74.49
2018-05-01T06:59:31.520Z,74.64
2018-05-01T07:01:59.107Z,73.99
2018-05-01T07:04:26.785Z,73.54
2018-05-01T07:06:54.296Z,73.74
2018-05-01T07:09:21.859Z,73.50
2018-05-01T07:11:49.476Z,73.82
2018-05-01T07:14:17.041Z,73.78
2018-05-01T07:16:44.614Z,73.92
2018-05-01T07:19:12.184Z,73.44
2018-05-01T07:21:39.760Z,71.98
2018-05-01T07:24:07.333Z,72.01
2018-05-01T07:26:34.932Z,70.79
2018-05-01T07:29:02.501Z,70.69
2018-05-01T07:31:30.078Z,71.73
2018-05-01T07:33:57.672Z,71.99
2018-05-01T07:36:26.262Z,71.79
2018-05-01T07:38:53.819Z,71.27
2018-05-01T07:41:21.582Z,71.20
2018-05-01T07:43:49.181Z,70.17
2018-05-01T07:46:16.750Z,69.78
2018-05-01T07:48:44.324Z,69.50
2018-05-01T07:51:11.919Z,69.17
2018-05-01T07:53:39.488Z,73.36
2018-05-01T07:56:07.082Z,68.78
2018-05-01T07:58:34.638Z,67.97
2018-05-01T08:01:02.208Z,67.88
2018-05-01T08:03:29.787Z,69.10
2018-05-01T08:05:57.363Z,66.75
2018-05-01T08:08:24.941Z,67.37
2018-05-01T08:10:52.555Z,66.29
2018-05-01T08:13:20.136Z,66.31
2018-05-01T08:15:47.703Z,66.78
2018-05-01T08:18:15.280Z,64.58
2018-05-01T08:20:42.852Z,64.48
2018-05-01T08:23:10.429Z,63.29
2018-05-01T08:25:38.433Z,63.56
2018-05-01T08:28:06.004Z,62.17
2018-05-01T08:30:33.618Z,61.58
2018-05-01T08:33:01.193Z,61.36
2018-05-01T08:35:28.796Z,62.06
2018-05-01T08:37:56.365Z,61.59
2018-05-01T08:40:24.012Z,60.62
2018-05-01T08:42:55.138Z,61.87
2018-05-01T08:45:22.721Z,60.82
2018-05-01T08:47:50.275Z,59.80
2018-05-01T08:50:17.854Z,60.15
2018-05-01T08:52:45.459Z,59.76
2018-05-01T08:55:13.030Z,59.81
2018-05-01T08:57:40.648Z,59.63
2018-05-01T09:00:08.508Z,60.10
2018-05-01T09:02:36.069Z,58.04
2018-05-01T09:05:03.692Z,59.39
2018-05-01T09:07:31.284Z,57.51
2018-05-01T09:10:02.390Z,57.46
2018-05-01T09:12:29.964Z,57.71
2018-05-01T09:14:57.568Z,56.50
2018-05-01T09:17:25.160Z,56.74
2018-05-01T09:19:52.718Z,56.00
2018-05-01T09:22:20.295Z,57.54
2018-05-01T09:24:50.758Z,56.83
2018-05-01T09:27:18.358Z,57.25
2018-05-01T09:29:45.951Z,56.37
2018-05-01T09:32:13.534Z,55.61
2018-05-01T09:34:41.090Z,55.89
2018-05-01T09:37:08.685Z,55.96
2018-05-01T09:39:36.282Z,53.63
2018-05-01T09:42:03.854Z,54.68
2018-05-01T09:44:31.472Z,54.19
2018-05-01T09:46:59.039Z,58.89
2018-05-01T09:49:26.600Z,53.24
2018-05-01T09:51:55.229Z,53.31
2018-05-01T09:54:23.367Z,51.89
2018-05-01T09:56:51.463Z,53.07
2018-05-01T09:59:20.027Z,53.70
2018-05-01T10:01:48.206Z,54.43
2018-05-01T10:04:16.231Z,54.33
2018-05-01T10:06:47.348Z,53.55
2018-05-01T10:09:15.527Z,54.06
2018-05-01T10:11:43.645Z,53.52
2018-05-01T10:14:11.777Z,53.58
2018-05-01T10:16:39.923Z,54.10
2018-05-01T10:19:08.061Z,52.69
2018-05-01T10:21:36.185Z,53.27
2018-05-01T10:24:04.316Z,54.26
2018-05-01T10:26:32.426Z,52.41
2018-05-01T10:29:00.572Z,52.87
2018-05-01T10:31:28.902Z,52.12
2018-05-01T10:33:57.088Z,53.05
2018-05-01T10:36:25.222Z,53.68
2018-05-01T10:38:53.391Z,53.90
2018-05-01T10:41:21.445Z,52.55
2018-05-01T10:43:49.751Z,53.88
2018-05-01T10:46:17.868Z,52.12
2018-05-01T10:48:45.976Z,53.30
2018-05-01T10:51:14.114Z,52.25
2018-05-01T10:53:42.233Z,51.83
2018-05-01T10:56:10.354Z,50.20
2018-05-01T10:58:38.497Z,50.89
2018-05-01T11:01:06.595Z,51.54
2018-05-01T11:03:35.089Z,51.32
2018-05-01T11:06:03.467Z,50.94
2018-05-01T11:08:31.640Z,51.19
2018-05-01T11:11:02.692Z,52.25
2018-05-01T11:13:30.828Z,51.52
2018-05-01T11:15:58.954Z,51.74
2018-05-01T11:18:27.065Z,52.29
2018-05-01T11:20:55.220Z,50.48
2018-05-01T11:23:23.333Z,50.06
2018-05-01T11:25:51.449Z,49.25
2018-05-01T11:28:19.597Z,49.24
2018-05-01T11:30:47.699Z,49.29
2018-05-01T11:33:15.840Z,49.81
2018-05-01T11:35:43.962Z,50.29
2018-05-01T11:38:12.077Z,48.98
2018-05-01T11:40:40.202Z,48.66
2018-05-01T11:43:08.323Z,50.00
2018-05-01T11:45:36.430Z,49.53
2018-05-01T11:48:04.553Z,49.86
2018-05-01T11:50:32.673Z,50.31
2018-05-01T11:53:00.803Z,49.80
2018-05-01T11:55:29.095Z,47.21
2018-05-01T11:57:57.231Z,43.56
2018-05-01T12:00:25.360Z,44.13
2018-05-01T12:02:53.491Z,44.21
2018-05-01T12:05:21.657Z,45.81
2018-05-01T12:07:49.769Z,44.15
2018-05-01T12:10:17.893Z,42.93
2018-05-01T12:12:46.050Z,42.21
2018-05-01T12:15:14.143Z,40.49
2018-05-01T12:17:42.282Z,41.23
2018-05-01T12:20:10.390Z,42.63
2018-05-01T12:22:38.514Z,37.09
2018-05-01T12:25:06.648Z,37.30
2018-05-01T12:27:35.514Z,38.49
2018-05-01T12:30:03.703Z,39.28
2018-05-01T12:32:31.756Z,39.27
2018-05-01T12:34:59.900Z,39.20
2018-05-01T12:37:27.996Z,39.16
2018-05-01T12:39:56.131Z,39.11
2018-05-01T12:42:24.331Z,37.81
2018-05-01T12:44:52.373Z,38.58
2018-05-01T12:47:20.495Z,39.55
2018-05-01T12:49:48.633Z,40.55
2018-05-01T12:52:19.747Z,41.11
2018-05-01T12:54:47.887Z,40.46
2018-05-01T12:57:16.047Z,41.41
2018-05-01T12:59:44.143Z,41.36
2018-05-01T13:02:12.268Z,40.74
2018-05-01T13:04:41.016Z,41.45
2018-05-01T13:07:09.152Z,41.78
2018-05-01T13:09:37.282Z,41.86
2018-05-01T13:12:05.614Z,38.69
2018-05-01T13:14:33.744Z,40.61
2018-05-01T13:17:01.863Z,40.36
2018-05-01T13:19:30.000Z,40.79
2018-05-01T13:21:58.107Z,40.66
2018-05-01T13:24:26.247Z,40.69
2018-05-01T13:26:54.373Z,39.74
2018-05-01T13:29:22.497Z,41.73
2018-05-01T13:31:50.613Z,40.20
2018-05-01T13:34:21.673Z,39.14
2018-05-01T13:36:49.781Z,34.18
2018-05-01T13:39:19.892Z,37.27
2018-05-01T13:41:48.007Z,34.71
2018-05-01T13:44:16.137Z,34.83
2018-05-01T13:46:44.246Z,35.88
2018-05-01T13:49:12.386Z,35.19
2018-05-01T13:51:40.516Z,37.04
2018-05-01T13:54:08.631Z,37.28
2018-05-01T13:56:36.768Z,36.41
2018-05-01T13:59:04.876Z,36.36
2018-05-01T14:01:32.981Z,36.38
2018-05-01T14:04:01.281Z,37.07
2018-05-01T14:06:29.414Z,35.99
2018-05-01T14:08:57.520Z,35.72
2018-05-01T14:11:25.656Z,36.53
2018-05-01T14:13:53.775Z,37.48
2018-05-01T14:16:21.902Z,37.25
2018-05-01T14:18:50.007Z,36.95
2018-05-01T14:21:18.124Z,37.40
2018-05-01T14:23:46.255Z,36.73
2018-05-01T14:26:14.380Z,36.51
2018-05-01T14:28:42.493Z,36.11
2018-05-01T14:31:10.608Z,35.96
2018-05-01T14:33:38.737Z,36.41
2018-05-01T14:36:06.884Z,36.89
2018-05-01T14:38:34.998Z,35.94
2018-05-01T14:41:03.137Z,35.61
2018-05-01T14:43:31.267Z,36.23
2018-05-01T14:45:59.363Z,36.65
2018-05-01T14:48:27.497Z,35.99
2018-05-01T14:50:55.611Z,37.75
2018-05-01T14:53:23.720Z,38.11
2018-05-01T14:55:51.848Z,36.66
2018-05-01T14:58:19.948Z,37.42
2018-05-01T15:00:48.062Z,37.08
2018-05-01T15:03:16.171Z,36.62
2018-05-01T15:05:44.290Z,37.17
2018-05-01T15:08:12.386Z,36.20
2018-05-01T15:10:40.517Z,35.27
2018-05-01T15:13:08.632Z,35.75
2018-05-01T15:15:36.757Z,34.68
2018-05-01T15:18:04.879Z,36.71
2018-05-01T15:20:33.016Z,35.47
2018-05-01T15:23:01.192Z,36.44
2018-05-01T15:25:29.476Z,34.38
2018-05-01T15:27:57.546Z,34.22
2018-05-01T15:30:25.813Z,34.51
2018-05-01T15:32:53.890Z,35.27
2018-05-01T15:35:22.058Z,35.30
2018-05-01T15:37:50.232Z,35.42
2018-05-01T15:40:18.358Z,35.51
2018-05-01T15:42:46.487Z,36.16
2018-05-01T15:45:14.700Z,35.55
2018-05-01T15:47:42.755Z,38.13
2018-05-01T15:50:10.869Z,34.77
2018-05-01T15:52:39.033Z,35.57
2018-05-01T15:55:07.156Z,35.89
2018-05-01T15:57:35.273Z,34.82
2018-05-01T16:00:03.542Z,36.22
2018-05-01T16:02:31.718Z,35.76
2018-05-01T16:04:59.922Z,35.09
2018-05-01T16:07:28.124Z,34.80
2018-05-01T16:09:56.245Z,34.22
2018-05-01T16:12:24.384Z,34.83
2018-05-01T16:14:52.467Z,34.93
2018-05-01T16:17:20.613Z,35.17
2018-05-01T16:19:48.733Z,36.26
2018-05-01T16:22:16.824Z,34.52
2018-05-01T16:24:44.953Z,33.49
2018-05-01T16:27:13.086Z,33.87
2018-05-01T16:29:41.228Z,33.97
2018-05-01T16:32:09.360Z,34.32
2018-05-01T16:34:37.465Z,33.43
2018-05-01T16:37:05.582Z,33.83
2018-05-01T16:39:33.714Z,34.05
2018-05-01T16:42:01.903Z,34.39
2018-05-01T16:44:30.033Z,33.69
2018-05-01T16:46:58.140Z,35.22
2018-05-01T16:49:26.272Z,35.11
2018-05-01T16:51:54.401Z,34.29
2018-05-01T16:54:22.518Z,34.57
2018-05-01T16:56:50.678Z,33.53
2018-05-01T16:59:18.921Z,34.44
2018-05-01T17:01:47.038Z,34.93
2018-05-01T17:04:15.143Z,35.77
2018-05-01T17:06:43.281Z,34.69
2018-05-01T17:09:11.413Z,34.99
2018-05-01T17:11:39.591Z,36.24
2018-05-01T17:14:07.903Z,36.13
2018-05-01T17:16:36.024Z,36.60
2018-05-01T17:19:04.155Z,36.17
2018-05-01T17:21:32.281Z,36.48
2018-05-01T17:24:00.406Z,36.83
2018-05-01T17:26:28.529Z,37.00
2018-05-01T17:28:56.657Z,36.13
2018-05-01T17:31:24.784Z,36.41
2018-05-01T17:33:52.936Z,37.42
2018-05-01T17:36:21.089Z,37.30
2018-05-01T17:38:49.198Z,37.05
2018-05-01T17:41:17.437Z,37.70
2018-05-01T17:43:45.590Z,38.41
2018-05-01T17:46:13.685Z,38.47
2018-05-01T17:48:41.806Z,39.07
2018-05-01T17:51:09.956Z,38.73
2018-05-01T17:53:38.083Z,37.59
2018-05-01T17:56:06.202Z,38.31
2018-05-01T17:58:34.347Z,39.07
2018-05-01T18:01:02.477Z,37.24
2018-05-01T18:03:30.595Z,38.68
2018-05-01T18:05:58.715Z,39.32
2018-05-01T18:08:26.847Z,39.89
2018-05-01T18:10:54.950Z,40.28
2018-05-01T18:13:23.078Z,38.85
2018-05-01T18:15:51.183Z,39.33
2018-05-01T18:18:19.305Z,39.31
2018-05-01T18:20:47.433Z,41.13
2018-05-01T18:23:15.601Z,41.95
2018-05-01T18:25:43.687Z,42.36
2018-05-01T18:28:11.836Z,42.82
2018-05-01T18:30:39.967Z,43.49
2018-05-01T18:33:08.075Z,43.86
2018-05-01T18:35:36.221Z,45.63
2018-05-01T18:38:04.333Z,46.54
2018-05-01T18:40:32.453Z,47.77
2018-05-01T18:43:00.585Z,48.98
2018-05-01T18:45:28.701Z,50.04
2018-05-01T18:47:56.825Z,50.45
2018-05-01T18:50:30.179Z,51.70
2018-05-01T18:52:53.396Z,52.37
2018-05-01T18:55:21.515Z,52.58
2018-05-01T18:57:49.664Z,52.69
2018-05-01T19:00:17.770Z,53.42
2018-05-01T19:02:49.620Z,53.45
2018-05-01T19:05:17.758Z,55.05
2018-05-01T19:07:45.894Z,54.62
2018-05-01T19:10:13.992Z,54.59
2018-05-01T19:12:42.114Z,54.29
2018-05-01T19:15:10.218Z,54.41
2018-05-01T19:17:38.342Z,55.57
2018-05-01T19:20:06.469Z,55.96
2018-05-01T19:22:34.596Z,56.83
2018-05-01T19:25:02.722Z,57.23
2018-05-01T19:27:31.072Z,57.81
2018-05-01T19:29:59.204Z,58.23
2018-05-01T19:32:27.336Z,58.09
2018-05-01T19:34:55.465Z,58.71
2018-05-01T19:37:23.585Z,58.63
2018-05-01T19:39:51.712Z,59.47
2018-05-01T19:42:19.855Z,59.66
2018-05-01T19:44:47.970Z,60.33
2018-05-01T19:47:16.104Z,61.09
2018-05-01T19:49:44.216Z,60.59
2018-05-01T19:52:13.582Z,61.24
2018-05-01T19:54:41.676Z,61.03
2018-05-01T19:57:09.817Z,60.71
2018-05-01T19:59:37.921Z,60.55
2018-05-01T20:02:06.059Z,60.53
2018-05-01T20:04:34.170Z,61.96
2018-05-01T20:07:02.301Z,61.67
2018-05-01T20:09:30.421Z,61.65
2018-05-01T20:11:58.534Z,62.00
2018-05-01T20:14:27.112Z,61.66
2018-05-01T20:16:55.237Z,61.76
2018-05-01T20:19:23.357Z,61.77
2018-05-01T20:21:51.492Z,61.68
2018-05-01T20:24:19.617Z,62.44
2018-05-01T20:26:47.731Z,61.70
2018-05-01T20:29:15.877Z,62.29
2018-05-01T20:31:44.012Z,62.11
2018-05-01T20:34:12.139Z,62.10
2018-05-01T20:36:40.275Z,62.91
2018-05-01T20:39:08.389Z,63.17
2018-05-01T20:41:36.659Z,63.33
2018-05-01T20:44:04.831Z,63.92
2018-05-01T20:46:40.193Z,64.19
2018-05-01T20:49:08.371Z,64.35
2018-05-01T20:51:36.481Z,64.19
2018-05-01T20:54:04.626Z,64.48
2018-05-01T20:56:32.737Z,64.20
2018-05-01T20:59:00.835Z,63.22
2018-05-01T21:01:28.980Z,63.38
2018-05-01T21:03:57.114Z,62.75
2018-05-01T21:06:25.223Z,63.23
2018-05-01T21:08:54.318Z,62.68
2018-05-01T21:11:22.444Z,62.76
2018-05-01T21:13:50.571Z,63.00
2018-05-01T21:16:18.693Z,62.04
2018-05-01T21:18:46.824Z,61.76
2018-05-01T21:21:15.262Z,62.21
2018-05-01T21:23:43.385Z,62.64
2018-05-01T21:26:11.512Z,62.62
2018-05-01T21:28:39.631Z,62.82
2018-05-01T21:31:07.753Z,62.67
2018-05-01T21:33:35.865Z,63.24
2018-05-01T21:36:03.978Z,63.06
2018-05-01T21:38:32.095Z,63.69
2018-05-01T21:41:00.212Z,63.19
2018-05-01T21:43:28.343Z,63.41
2018-05-01T21:45:56.478Z,63.22
2018-05-01T21:48:24.578Z,63.13
2018-05-01T21:50:52.719Z,63.81
2018-05-01T21:53:20.845Z,63.33
2018-05-01T21:55:48.942Z,62.96
2018-05-01T21:58:17.069Z,63.54
2018-05-01T22:00:45.215Z,64.10
2018-05-01T22:03:13.344Z,64.08
2018-05-01T22:05:41.476Z,64.46
2018-05-01T22:08:09.625Z,64.58
2018-05-01T22:10:37.722Z,65.94
2018-05-01T22:13:05.854Z,65.75
2018-05-01T22:15:34.147Z,65.51
2018-05-01T22:18:02.260Z,66.30
2018-05-01T22:20:30.379Z,66.52
2018-05-01T22:22:58.524Z,66.67
2018-05-01T22:25:26.618Z,66.32
2018-05-01T22:27:54.737Z,65.92
2018-05-01T22:30:23.118Z,65.61
2018-05-01T22:32:52.115Z,65.50
2018-05-01T22:35:20.255Z,65.69
2018-05-01T22:37:48.389Z,65.99
2018-05-01T22:40:16.532Z,65.71
2018-05-01T22:42:44.663Z,66.29
2018-05-01T22:45:12.816Z,66.37
2018-05-01T22:47:40.921Z,66.51
2018-05-01T22:50:09.016Z,66.56
2018-05-01T22:52:37.134Z,66.47
2018-05-01T22:55:05.245Z,66.76
2018-05-01T22:57:33.379Z,66.44
2018-05-01T23:00:01.512Z,65.76
2018-05-01T23:02:29.639Z,65.12
2018-05-01T23:04:57.759Z,65.76
2018-05-01T23:07:25.914Z,65.34
2018-05-01T23:09:54.042Z,65.99
2018-05-01T23:12:22.165Z,65.69
2018-05-01T23:14:50.423Z,64.82
2018-05-01T23:17:18.521Z,65.16
2018-05-01T23:19:46.640Z,65.45
2018-05-01T23:22:14.785Z,65.19
2018-05-01T23:24:42.921Z,65.00
2018-05-01T23:27:11.022Z,64.98
2018-05-01T23:29:39.149Z,65.07
2018-05-01T23:32:07.254Z,65.53
2018-05-01T23:34:35.383Z,65.43
2018-05-01T23:37:03.514Z,64.79
2018-05-01T23:39:31.627Z,65.23
2018-05-01T23:41:59.759Z,65.46
2018-05-01T23:44:27.880Z,65.61
2018-05-01T23:46:56.011Z,65.77
2018-05-01T23:49:24.132Z,65.57
2018-05-01T23:51:52.265Z,65.68
2018-05-01T23:54:20.390Z,65.35
2018-05-01T23:56:48.490Z,65.99
2018-05-01T23:59:16.746Z,65.83
